createdAt,value
2019-01-29T00:00:03.673Z,3.70
2019-01-29T00:04:55.004Z,4.10
2019-01-29T00:09:45.068Z,6.30
2019-01-29T00:14:35.012Z,3.90
2019-01-29T00:19:24.821Z,6.40
2019-01-29T00:24:14.888Z,5.30
2019-01-29T00:29:05.314Z,5.20
2019-01-29T00:33:56.043Z,4.70
2019-01-29T00:38:47.164Z,6.20
2019-01-29T00:43:38.300Z,7.60
2019-01-29T00:48:29.763Z,4.70
2019-01-29T00:53:21.522Z,7.40
2019-01-29T00:58:13.339Z,6.90
2019-01-29T01:03:04.973Z,8.50
2019-01-29T01:07:56.145Z,6.60
2019-01-29T01:12:47.213Z,4.10
2019-01-29T01:17:38.016Z,12.60
2019-01-29T01:22:28.639Z,5.50
2019-01-29T01:27:19.497Z,4.90
2019-01-29T01:32:12.460Z,6.70
2019-01-29T01:37:02.587Z,7.50
2019-01-29T01:41:53.691Z,5.00
2019-01-29T01:46:44.124Z,11.10
2019-01-29T01:51:34.779Z,6.00
2019-01-29T01:56:25.414Z,9.60
2019-01-29T02:01:15.887Z,8.80
2019-01-29T02:06:06.416Z,6.20
2019-01-29T02:10:57.399Z,8.30
2019-01-29T02:15:47.869Z,9.70
2019-01-29T02:20:38.429Z,5.70
2019-01-29T02:25:29.330Z,5.00
2019-01-29T02:30:20.342Z,7.80
2019-01-29T02:35:10.944Z,6.40
2019-01-29T02:40:02.852Z,5.20
2019-01-29T02:44:54.520Z,11.90
2019-01-29T02:49:46.533Z,8.50
2019-01-29T02:54:37.380Z,4.80
2019-01-29T02:59:28.417Z,9.10
2019-01-29T03:04:19.635Z,5.90
2019-01-29T03:09:11.302Z,3.20
2019-01-29T03:14:02.167Z,7.60
2019-01-29T03:18:53.783Z,6.70
2019-01-29T03:23:45.009Z,9.10
2019-01-29T03:28:36.787Z,6.90
2019-01-29T03:33:27.406Z,10.40
2019-01-29T03:38:17.859Z,7.80
2019-01-29T03:43:08.223Z,5.60
2019-01-29T03:47:58.459Z,6.70
2019-01-29T03:52:49.385Z,8.80
2019-01-29T03:57:39.904Z,8.40
2019-01-29T04:02:30.532Z,8.70
2019-01-29T04:07:19.994Z,12.50
2019-01-29T04:12:09.861Z,9.30
2019-01-29T04:17:03.610Z,9.00
2019-01-29T04:21:54.856Z,8.00
2019-01-29T04:26:45.666Z,12.10
2019-01-29T04:31:35.873Z,10.30
2019-01-29T04:36:25.580Z,14.60
2019-01-29T04:41:17.100Z,11.70
2019-01-29T04:46:09.094Z,14.70
2019-01-29T04:51:00.644Z,12.80
2019-01-29T04:55:51.649Z,14.50
2019-01-29T05:00:42.006Z,18.20
2019-01-29T05:05:33.680Z,18.50
2019-01-29T05:10:23.530Z,16.60
2019-01-29T05:15:14.284Z,20.00
2019-01-29T05:20:05.563Z,25.50
2019-01-29T05:24:56.145Z,18.50
2019-01-29T05:29:49.853Z,19.40
2019-01-29T05:34:40.121Z,18.20
2019-01-29T05:39:31.496Z,21.20
2019-01-29T05:44:22.415Z,21.60
2019-01-29T05:49:13.323Z,17.10
2019-01-29T05:54:04.112Z,24.70
2019-01-29T05:58:54.861Z,26.40
2019-01-29T06:03:45.640Z,22.90
2019-01-29T06:08:38.172Z,25.90
2019-01-29T06:13:28.336Z,22.50
2019-01-29T06:18:19.029Z,25.50
2019-01-29T06:23:09.789Z,22.80
2019-01-29T06:28:00.769Z,21.70
2019-01-29T06:32:52.183Z,21.00
2019-01-29T06:37:42.905Z,24.10
2019-01-29T06:42:33.770Z,30.80
2019-01-29T06:47:26.265Z,26.30
2019-01-29T06:52:16.582Z,21.20
2019-01-29T06:57:09.454Z,25.60
2019-01-29T07:01:59.292Z,25.00
2019-01-29T07:06:50.475Z,23.40
2019-01-29T07:11:43.501Z,33.90
2019-01-29T07:16:36.018Z,31.60
2019-01-29T07:21:26.442Z,32.60
2019-01-29T07:26:17.389Z,21.60
2019-01-29T07:31:08.416Z,20.10
2019-01-29T07:35:58.744Z,23.60
2019-01-29T07:40:49.540Z,27.50
2019-01-29T07:45:40.128Z,25.40
2019-01-29T07:50:31.215Z,23.60
2019-01-29T07:55:22.417Z,25.30
2019-01-29T08:00:24.521Z,36.20
2019-01-29T08:05:13.402Z,28.00
2019-01-29T08:10:03.959Z,31.90
2019-01-29T08:14:54.850Z,21.80
2019-01-29T08:19:54.272Z,28.30
2019-01-29T08:24:51.520Z,24.40
2019-01-29T08:29:50.815Z,18.10
2019-01-29T08:34:51.857Z,24.90
2019-01-29T08:39:40.871Z,18.50
2019-01-29T08:44:31.595Z,21.20
2019-01-29T08:49:22.446Z,24.80
2019-01-29T08:54:13.220Z,19.90
2019-01-29T08:55:55.947Z,23.20
2019-01-29T09:00:45.756Z,26.40
2019-01-29T09:05:36.655Z,24.40
2019-01-29T09:10:27.714Z,15.70
2019-01-29T09:15:21.701Z,16.80
2019-01-29T09:20:12.027Z,19.50
2019-01-29T09:25:05.003Z,19.90
2019-01-29T09:29:55.504Z,24.10
2019-01-29T09:34:47.945Z,17.20
2019-01-29T09:39:38.940Z,15.50
2019-01-29T09:44:29.906Z,21.10
2019-01-29T09:49:22.909Z,22.30
2019-01-29T09:54:13.552Z,15.20
2019-01-29T09:59:04.316Z,15.40
2019-01-29T10:03:55.444Z,13.80
2019-01-29T10:08:46.543Z,14.20
2019-01-29T10:13:38.216Z,16.20
2019-01-29T10:18:31.745Z,14.20
2019-01-29T10:23:22.225Z,10.30
2019-01-29T10:28:15.369Z,15.10
2019-01-29T10:33:05.807Z,15.10
2019-01-29T10:37:57.018Z,11.80
2019-01-29T10:42:50.295Z,11.40
2019-01-29T10:47:41.686Z,14.80
2019-01-29T10:52:33.746Z,12.10
2019-01-29T10:57:24.694Z,14.40
2019-01-29T11:02:18.388Z,11.80
2019-01-29T11:07:09.080Z,7.30
2019-01-29T11:12:00.102Z,5.90
2019-01-29T11:16:51.202Z,12.50
2019-01-29T11:21:42.467Z,5.60
2019-01-29T11:26:34.513Z,8.90
2019-01-29T11:31:25.047Z,4.40
2019-01-29T11:36:16.311Z,5.40
2019-01-29T11:41:07.535Z,7.20
2019-01-29T11:45:59.009Z,5.20
2019-01-29T11:50:50.309Z,9.00
2019-01-29T11:55:43.435Z,7.40
2019-01-29T12:00:34.354Z,3.10
2019-01-29T12:05:25.822Z,8.30
2019-01-29T12:10:19.078Z,10.70
2019-01-29T12:15:10.184Z,3.40
2019-01-29T12:20:02.667Z,6.20
2019-01-29T12:24:56.191Z,5.60
2019-01-29T12:29:47.908Z,3.40
2019-01-29T12:34:39.243Z,6.20
2019-01-29T12:39:30.618Z,4.90
2019-01-29T12:44:22.541Z,5.00
2019-01-29T12:49:13.652Z,11.40
2019-01-29T12:54:06.344Z,5.30
2019-01-29T12:58:57.630Z,3.40
2019-01-29T13:03:50.941Z,2.40
2019-01-29T13:08:43.945Z,4.60
2019-01-29T13:13:35.166Z,5.40
2019-01-29T13:18:27.130Z,5.80
2019-01-29T13:23:20.862Z,2.60
2019-01-29T13:28:12.258Z,1.90
2019-01-29T13:33:04.341Z,3.80
2019-01-29T13:37:55.620Z,2.00
2019-01-29T13:42:47.318Z,5.80
2019-01-29T13:47:38.727Z,4.90
2019-01-29T13:52:32.714Z,5.00
2019-01-29T13:57:23.688Z,4.80
2019-01-29T14:02:15.840Z,2.50
2019-01-29T14:07:08.131Z,3.60
2019-01-29T14:12:00.195Z,1.20
2019-01-29T14:16:52.119Z,7.90
2019-01-29T14:21:43.752Z,2.20
2019-01-29T14:26:35.267Z,2.50
2019-01-29T14:31:27.259Z,5.20
2019-01-29T14:36:19.113Z,3.00
2019-01-29T14:41:10.730Z,1.60
2019-01-29T14:46:02.367Z,2.90
2019-01-29T14:50:56.516Z,5.10
2019-01-29T14:55:49.763Z,3.10
2019-01-29T15:00:41.138Z,3.30
2019-01-29T15:05:32.970Z,5.50
2019-01-29T15:10:25.129Z,3.40
2019-01-29T15:15:17.305Z,3.40
2019-01-29T15:20:09.261Z,3.60
2019-01-29T15:25:00.976Z,2.90
2019-01-29T15:29:54.563Z,7.70
2019-01-29T15:34:45.966Z,3.30
2019-01-29T15:39:40.504Z,3.30
2019-01-29T15:44:31.391Z,5.40
2019-01-29T15:49:25.071Z,2.70
2019-01-29T15:54:16.161Z,5.20
2019-01-29T15:59:07.956Z,5.10
2019-01-29T16:03:59.656Z,3.40
2019-01-29T16:08:53.493Z,4.80
2019-01-29T16:13:44.276Z,15.80
2019-01-29T16:18:36.250Z,7.40
2019-01-29T16:23:27.854Z,12.40
2019-01-29T16:28:19.719Z,9.20
2019-01-29T16:33:11.683Z,8.70
2019-01-29T16:38:05.394Z,10.60
2019-01-29T16:42:56.704Z,12.70
2019-01-29T16:47:48.577Z,18.30
2019-01-29T16:52:40.409Z,10.40
2019-01-29T16:57:34.388Z,13.30
2019-01-29T17:02:25.705Z,12.40
2019-01-29T17:07:17.927Z,14.10
2019-01-29T17:12:09.437Z,7.80
2019-01-29T17:17:01.353Z,4.20
2019-01-29T17:21:52.942Z,6.40
2019-01-29T17:26:44.781Z,3.90
2019-01-29T17:31:36.795Z,3.70
2019-01-29T17:36:28.622Z,6.50
2019-01-29T17:41:20.515Z,3.70
2019-01-29T17:46:12.447Z,4.20
2019-01-29T17:51:04.181Z,5.90
2019-01-29T17:55:57.810Z,6.30
2019-01-29T18:00:49.746Z,10.20
2019-01-29T18:05:41.461Z,5.10
2019-01-29T18:10:33.147Z,4.90
2019-01-29T18:15:27.295Z,6.20
2019-01-29T18:20:18.546Z,9.40
2019-01-29T18:25:10.350Z,5.10
2019-01-29T18:30:04.158Z,5.70
2019-01-29T18:34:57.638Z,5.50
2019-01-29T18:39:50.829Z,4.90
2019-01-29T18:44:42.077Z,5.70
2019-01-29T18:49:34.037Z,6.60
2019-01-29T18:54:25.953Z,6.20
2019-01-29T18:59:17.797Z,6.30
2019-01-29T19:04:11.747Z,6.10
2019-01-29T19:09:04.769Z,6.70
2019-01-29T19:13:56.017Z,7.90
2019-01-29T19:18:49.994Z,7.00
2019-01-29T19:23:43.188Z,5.10
2019-01-29T19:28:36.538Z,5.40
2019-01-29T19:33:29.735Z,6.00
2019-01-29T19:38:21.047Z,5.10
2019-01-29T19:43:13.682Z,4.90
2019-01-29T19:48:05.828Z,10.70
2019-01-29T19:52:59.665Z,8.40
2019-01-29T19:57:53.127Z,5.20
2019-01-29T20:02:46.649Z,6.70
2019-01-29T20:07:38.007Z,7.50
2019-01-29T20:12:29.787Z,5.80
2019-01-29T20:17:21.991Z,3.70
2019-01-29T20:22:14.027Z,9.80
2019-01-29T20:27:07.866Z,5.40
2019-01-29T20:31:59.147Z,8.20
2019-01-29T20:36:52.813Z,6.40
2019-01-29T20:41:46.261Z,7.90
2019-01-29T20:46:37.795Z,8.20
2019-01-29T20:51:29.577Z,4.90
2019-01-29T20:56:23.609Z,7.70
2019-01-29T21:01:14.910Z,5.40
2019-01-29T21:06:06.830Z,4.30
2019-01-29T21:10:58.802Z,4.50
2019-01-29T21:15:50.612Z,11.00
2019-01-29T21:20:42.535Z,4.80
2019-01-29T21:25:34.254Z,4.70
2019-01-29T21:30:26.335Z,4.80
2019-01-29T21:35:19.812Z,6.50
2019-01-29T21:40:21.442Z,6.40
2019-01-29T21:45:13.268Z,6.50
2019-01-29T21:50:11.198Z,5.80
2019-01-29T21:55:01.898Z,8.10
2019-01-29T21:59:53.643Z,4.30
2019-01-29T22:04:45.253Z,4.90
2019-01-29T22:09:37.132Z,3.50
2019-01-29T22:14:29.068Z,5.20
2019-01-29T22:19:20.801Z,5.10
2019-01-29T22:24:12.571Z,7.10
2019-01-29T22:29:04.136Z,10.60
2019-01-29T22:33:56.008Z,4.60
2019-01-29T22:38:49.992Z,3.90
2019-01-29T22:43:41.396Z,3.40
2019-01-29T22:48:35.153Z,3.10
2019-01-29T22:53:25.869Z,3.40
2019-01-29T22:58:19.846Z,4.10
2019-01-29T23:03:13.038Z,8.70
2019-01-29T23:08:06.547Z,4.10
2019-01-29T23:13:00.452Z,5.30
2019-01-29T23:44:39.256Z,4.60
2019-01-29T23:49:30.142Z,7.00
2019-01-29T23:54:21.568Z,4.70
